Happy, Arkansas
Current Conditions -  °F | °C
As of 3:25 PM on Friday 19 Dec 2014 (Local Time) from KSRC Reporting Station
Light Rain Light Rain  
Wind Chill: 36°   Ceiling: 7000
Heat Index: 41°   Visibility: 10mi
Dew Point: 36°   Wind: 8mph
Humidity: 81%   Direction: 70°ENE
Pressure: 30.22"   Gusts: NA
Location:  35.2662°N, 91.8491°W
Report Text: KSRC 192125Z AUTO 07007KT 10SM -RA FEW015 OVC070 05/02 A3022 RMK AO2 P0000 TSNO
Loading
Personal Weather Stations






























Interactive Weather Map New forecast layout! Learn more

10-Day Weather Forecast

Advertisements
Track Severe Weather on mobile